Aérodrome :
LOGIN :

S'inscrire | Disclaimer

   EN    FR    IT 

 










Légende :    VFR   VFR Marginal   IFR   IFR Intensif   IFR Très Intensif
Visi : 
Plafond : 
>= 8 km
>= 3000ft
5 à 8 km
1000 à 3000 ft
1500m à 5 km
500 à 1000 ft
800 à 1500m
200 à 500 ft
< 800m
< 200 ft
Symboles :   Orages  Brouillard  Fortes neiges  Fortes précipitations  Vent > 20 kt
SIGMETs :   Divers  Orages  Givrage  Turbulence  Onde Orograph.  Cendres Volcan.







- Altitude de l'aérodrome : 327 ft
- Code IATA : BHX
- Voir les cartes d'approche


EGBB - Birmingham

DERNIER METAR :
  • 201750Z 30009KT 9999 BKN037 20/14 Q1010

METARs EXPIRÉS :
  • 201720Z 31008KT 270V340 9999 BKN026 20/15 Q1010
  • 201650Z 30006KT 270V350 9999 SCT025TCU BKN030 19/15 Q1010
  • 201620Z 30007KT 9999 VCSH BKN030TCU 19/15 Q1009 RESHRA
  • 201550Z 31008KT 9999 SHRA SCT021 BKN027TCU 19/15 Q1009 RESHRA
  • 201520Z 27010KT 220V310 9999 FEW028TCU BKN031 21/14 Q1008
  • 201450Z 26009KT 220V300 9999 SCT034TCU BKN040 21/13 Q1008

TAF TAF EGBB
Valide du 20 à 18h jusqu'au 21 à 18h UTC


201656Z 2018/2118 28010KT 9999 SCT035
BECMG 2023/2102 22007KT
ATIS : +44 121 780 0910
Pas de NOTAMs connus pour ce terrain.



MET'MAP, la Météo Aéronautique d'un coup d'oeil ! - Copyright ORBIFLY Décembre 2007 - Disclaimer

ORBIFLY MET'MAP TEAM :

Programmation & Développement : Alexandra Zaïnal
Conception & Développement : Baudouin d'Aumeries
Co-Programmation & Développement : Marc-Olivier Méhu
Soutien technique & logistique : Manuel Goepfert

Contact : metmap@orbifly.com




SOURCES & CREDITS :

   NOAA